Terminal Aerodrome Forecast
Issued by NWS Charleston, WV

Home | Current Version | Previous Version | Text Only | Print | Product List | Glossary On
Versions: 1 2 3 4 5 6 7 8 9 10 11 12 13 14 15 16 17 18 19 20 21 22 23
000
FTUS41 KRLX 011400 AAB
TAFEKN
TAF AMD
KEKN 011431Z 0115/0212 00000KT 3SM BR OVC002
     FM011600 VRB03KT 4SM BR SCT004 BKN035
     FM011800 VRB03KT P6SM BKN035
     FM020400 VRB03KT 5SM BR FEW001
     FM020800 00000KT 1/2SM FG BKN002=

USA.gov is the U.S. government's official web portal to all federal, state and local government web resources and services.